createdAt,value
2022-10-18T00:00:19.666Z,6.72
2022-10-18T00:02:48.050Z,7.15
2022-10-18T00:05:17.642Z,6.72
2022-10-18T00:07:51.713Z,6.72
2022-10-18T00:10:20.121Z,6.63
2022-10-18T00:13:03.415Z,6.28
2022-10-18T00:15:31.535Z,7.45
2022-10-18T00:17:59.586Z,6.57
2022-10-18T00:20:29.613Z,6.35
2022-10-18T00:22:57.949Z,6.50
2022-10-18T00:25:26.068Z,7.30
2022-10-18T00:28:01.259Z,7.07
2022-10-18T00:30:29.432Z,6.35
2022-10-18T00:32:58.114Z,6.63
2022-10-18T00:35:28.184Z,7.30
2022-10-18T00:37:56.282Z,6.67
2022-10-18T00:40:27.761Z,6.90
2022-10-18T00:42:55.918Z,7.20
2022-10-18T00:45:28.978Z,7.20
2022-10-18T00:48:02.573Z,6.80
2022-10-18T00:50:35.375Z,7.13
2022-10-18T00:53:06.924Z,6.90
2022-10-18T00:55:35.552Z,6.97
2022-10-18T00:58:04.960Z,6.53
2022-10-18T01:00:34.758Z,6.93
2022-10-18T01:03:02.829Z,6.32
2022-10-18T01:05:32.858Z,6.68
2022-10-18T01:08:16.000Z,6.93
2022-10-18T01:11:06.697Z,6.70
2022-10-18T01:13:48.894Z,6.45
2022-10-18T01:16:22.288Z,6.72
2022-10-18T01:18:54.798Z,6.65
2022-10-18T01:21:46.870Z,7.03
2022-10-18T01:24:48.797Z,7.05
2022-10-18T01:27:36.343Z,6.75
2022-10-18T01:30:53.312Z,7.07
2022-10-18T01:33:38.273Z,6.95
2022-10-18T01:36:15.458Z,7.18
2022-10-18T01:41:30.831Z,6.00
2022-10-18T01:44:01.875Z,6.72
2022-10-18T01:46:35.152Z,5.93
2022-10-18T01:49:03.470Z,6.38
2022-10-18T01:51:43.693Z,6.70
2022-10-18T01:54:14.431Z,6.47
2022-10-18T01:56:57.681Z,6.75
2022-10-18T01:59:37.688Z,6.50
2022-10-18T02:02:16.873Z,6.38
2022-10-18T02:04:54.462Z,6.63
2022-10-18T02:07:33.992Z,7.03
2022-10-18T02:10:11.197Z,6.32
2022-10-18T02:12:44.077Z,6.70
2022-10-18T02:15:15.459Z,6.97
2022-10-18T02:17:46.513Z,6.63
2022-10-18T02:20:18.643Z,7.15
2022-10-18T02:22:48.006Z,6.40
2022-10-18T02:25:21.443Z,7.18
2022-10-18T02:27:49.593Z,6.35
2022-10-18T02:30:18.622Z,6.78
2022-10-18T02:32:52.419Z,6.95
2022-10-18T02:35:26.163Z,6.72
2022-10-18T02:40:47.549Z,6.93
2022-10-18T02:43:15.738Z,7.07
2022-10-18T02:45:46.646Z,6.60
2022-10-18T02:50:52.826Z,6.43
2022-10-18T02:53:27.227Z,7.25
2022-10-18T02:55:55.636Z,7.15
2022-10-18T02:58:26.551Z,6.53
2022-10-18T03:03:31.326Z,5.90
2022-10-18T03:05:59.484Z,6.70
2022-10-18T03:08:27.663Z,6.40
2022-10-18T03:10:55.756Z,6.43
2022-10-18T03:13:24.045Z,6.13
2022-10-18T03:15:52.152Z,6.68
2022-10-18T03:18:23.304Z,6.78
2022-10-18T03:20:52.782Z,6.50
2022-10-18T03:23:20.884Z,6.35
2022-10-18T03:25:49.035Z,6.50
2022-10-18T03:28:20.037Z,6.50
2022-10-18T03:33:24.201Z,6.88
2022-10-18T03:35:53.634Z,6.65
2022-10-18T03:38:28.072Z,6.75
2022-10-18T03:40:56.149Z,7.07
2022-10-18T03:43:24.575Z,6.78
2022-10-18T03:45:52.908Z,6.50
2022-10-18T03:48:21.028Z,6.50
2022-10-18T03:50:49.224Z,6.47
2022-10-18T03:53:18.818Z,6.90
2022-10-18T03:55:52.658Z,6.47
2022-10-18T03:58:21.214Z,6.53
2022-10-18T04:00:56.591Z,6.75
2022-10-18T04:03:25.197Z,6.28
2022-10-18T04:05:53.287Z,6.57
2022-10-18T04:08:36.638Z,6.38
2022-10-18T04:11:08.312Z,6.70
2022-10-18T04:13:36.758Z,6.32
2022-10-18T04:16:05.426Z,6.95
2022-10-18T04:18:33.503Z,6.72
2022-10-18T04:21:01.773Z,6.85
2022-10-18T04:23:40.684Z,7.45
2022-10-18T04:26:08.847Z,6.68
2022-10-18T04:28:46.566Z,6.53
2022-10-18T04:31:17.790Z,6.90
2022-10-18T04:33:45.884Z,6.40
2022-10-18T04:36:14.106Z,7.03
2022-10-18T04:38:52.806Z,6.22
2022-10-18T04:41:21.009Z,6.45
2022-10-18T04:43:49.214Z,6.55
2022-10-18T04:46:17.394Z,6.78
2022-10-18T04:48:45.504Z,6.75
2022-10-18T04:51:13.631Z,6.53
2022-10-18T04:53:41.752Z,6.30
2022-10-18T04:56:18.550Z,6.88
2022-10-18T04:58:46.753Z,6.90
2022-10-18T05:01:15.030Z,6.18
2022-10-18T05:03:43.128Z,6.80
2022-10-18T05:06:11.524Z,6.30
2022-10-18T05:08:39.596Z,6.13
2022-10-18T05:11:07.834Z,7.25
2022-10-18T05:13:38.252Z,6.97
2022-10-18T05:16:06.525Z,7.25
2022-10-18T05:18:34.704Z,6.57
2022-10-18T05:21:02.792Z,6.70
2022-10-18T05:23:33.489Z,7.00
2022-10-18T05:26:03.882Z,6.40
2022-10-18T05:28:40.760Z,7.18
2022-10-18T05:31:13.865Z,6.78
2022-10-18T05:33:41.980Z,6.93
2022-10-18T05:36:10.877Z,7.10
2022-10-18T05:38:42.275Z,7.28
2022-10-18T05:41:10.805Z,7.15
2022-10-18T05:43:39.092Z,7.00
2022-10-18T05:46:13.549Z,7.20
2022-10-18T05:48:45.228Z,7.38
2022-10-18T05:51:25.908Z,6.82
2022-10-18T05:53:54.778Z,7.68
2022-10-18T05:56:22.935Z,7.82
2022-10-18T05:58:54.445Z,6.97
2022-10-18T06:01:22.583Z,7.03
2022-10-18T06:03:52.221Z,6.80
2022-10-18T06:06:21.291Z,7.00
2022-10-18T06:08:51.546Z,7.78
2022-10-18T06:11:21.476Z,8.25
2022-10-18T06:13:51.225Z,7.15
2022-10-18T06:16:22.216Z,7.43
2022-10-18T06:18:53.060Z,7.70
2022-10-18T06:21:22.260Z,7.13
2022-10-18T06:23:50.932Z,7.38
2022-10-18T06:26:19.191Z,7.57
2022-10-18T06:28:47.444Z,8.13
2022-10-18T06:31:16.625Z,7.60
2022-10-18T06:33:45.599Z,7.30
2022-10-18T06:36:17.391Z,8.02
2022-10-18T06:38:45.545Z,7.93
2022-10-18T06:41:13.952Z,8.63
2022-10-18T06:43:42.410Z,7.68
2022-10-18T06:46:10.632Z,7.72
2022-10-18T06:48:40.302Z,8.05
2022-10-18T06:51:09.383Z,8.27
2022-10-18T06:53:44.444Z,7.43
2022-10-18T06:56:21.629Z,6.90
2022-10-18T06:58:49.928Z,8.10
2022-10-18T07:01:19.053Z,7.93
2022-10-18T07:03:48.810Z,7.93
2022-10-18T07:06:19.652Z,9.13
2022-10-18T07:08:50.977Z,8.75
2022-10-18T07:11:21.274Z,9.13
2022-10-18T07:13:49.477Z,9.35
2022-10-18T07:16:19.142Z,9.20
2022-10-18T07:18:49.608Z,9.68
2022-10-18T07:21:19.442Z,8.45
2022-10-18T07:23:49.552Z,8.35
2022-10-18T07:26:19.480Z,8.37
2022-10-18T07:28:49.927Z,9.00
2022-10-18T07:31:18.629Z,9.18
2022-10-18T07:33:46.719Z,8.88
2022-10-18T07:36:15.322Z,9.70
2022-10-18T07:38:44.617Z,9.95
2022-10-18T07:41:15.474Z,9.82
2022-10-18T07:43:44.527Z,10.00
2022-10-18T07:46:13.172Z,9.57
2022-10-18T07:48:41.357Z,8.98
2022-10-18T07:51:09.974Z,9.23
2022-10-18T07:53:38.549Z,9.10
2022-10-18T07:56:09.633Z,8.55
2022-10-18T07:58:39.312Z,8.98
2022-10-18T08:01:09.084Z,8.77
2022-10-18T08:03:38.265Z,9.40
2022-10-18T08:06:09.112Z,9.57
2022-10-18T08:11:08.439Z,9.02
2022-10-18T08:13:38.082Z,8.85
2022-10-18T08:16:08.232Z,7.95
2022-10-18T08:18:37.100Z,9.03
2022-10-18T08:21:07.628Z,9.32
2022-10-18T08:23:42.569Z,8.93
2022-10-18T08:26:14.083Z,9.07
2022-10-18T08:28:53.566Z,9.07
2022-10-18T08:31:29.541Z,8.98
2022-10-18T08:33:57.979Z,8.23
2022-10-18T08:36:26.245Z,9.07
2022-10-18T08:38:54.477Z,9.32
2022-10-18T08:41:42.642Z,9.60
2022-10-18T08:44:18.230Z,8.93
2022-10-18T08:46:48.569Z,10.10
2022-10-18T08:49:24.124Z,9.43
2022-10-18T08:51:53.370Z,10.05
2022-10-18T08:54:28.493Z,9.18
2022-10-18T08:57:01.023Z,10.05
2022-10-18T08:59:43.116Z,9.60
2022-10-18T09:02:24.018Z,9.63
2022-10-18T09:04:57.570Z,9.90
2022-10-18T09:07:42.415Z,9.30
2022-10-18T09:10:21.756Z,9.68
2022-10-18T09:13:09.478Z,10.80
2022-10-18T09:15:46.441Z,9.82
2022-10-18T09:18:27.140Z,10.57
2022-10-18T09:20:58.759Z,10.43
2022-10-18T09:23:39.504Z,10.27
2022-10-18T09:26:14.969Z,8.77
2022-10-18T09:28:52.925Z,9.70
2022-10-18T09:31:29.995Z,9.25
2022-10-18T09:34:06.629Z,10.07
2022-10-18T09:36:37.285Z,10.23
2022-10-18T09:39:10.770Z,11.68
2022-10-18T09:41:44.809Z,12.55
2022-10-18T09:44:19.882Z,12.73
2022-10-18T09:46:53.754Z,12.98
2022-10-18T09:49:26.713Z,12.32
2022-10-18T09:51:55.482Z,12.50
2022-10-18T09:54:29.192Z,12.93
2022-10-18T09:57:03.703Z,11.55
2022-10-18T09:59:36.456Z,13.15
2022-10-18T10:02:06.809Z,12.52
2022-10-18T10:04:35.437Z,13.95
2022-10-18T10:07:03.966Z,13.88
2022-10-18T10:09:46.920Z,15.63
2022-10-18T10:12:29.874Z,15.43
2022-10-18T10:15:09.614Z,13.55
2022-10-18T10:17:39.163Z,15.27
2022-10-18T10:20:19.012Z,15.77
2022-10-18T10:22:48.564Z,16.05
2022-10-18T10:25:23.763Z,15.95
2022-10-18T10:27:52.277Z,16.88
2022-10-18T10:30:26.625Z,17.77
2022-10-18T10:32:57.693Z,16.40
2022-10-18T10:35:52.641Z,15.73
2022-10-18T10:38:26.007Z,16.15
2022-10-18T10:40:54.998Z,16.30
2022-10-18T10:43:38.318Z,16.23
2022-10-18T10:46:10.737Z,17.08
2022-10-18T10:48:50.630Z,16.60
2022-10-18T10:51:28.994Z,17.30
2022-10-18T10:54:01.880Z,16.05
2022-10-18T10:56:32.301Z,15.95
2022-10-18T10:59:09.606Z,14.95
2022-10-18T11:01:37.824Z,16.95
2022-10-18T11:04:27.983Z,16.15
2022-10-18T11:07:05.180Z,16.20
2022-10-18T11:09:50.018Z,17.30
2022-10-18T11:12:33.153Z,15.73
2022-10-18T11:15:13.140Z,15.98
2022-10-18T11:17:47.547Z,15.45
2022-10-18T11:20:24.280Z,15.90
2022-10-18T11:22:59.847Z,16.48
2022-10-18T11:25:40.492Z,16.10
2022-10-18T11:28:20.741Z,16.13
2022-10-18T11:31:01.319Z,16.07
2022-10-18T11:34:06.972Z,15.70
2022-10-18T11:36:45.415Z,16.40
2022-10-18T11:39:38.633Z,16.00
2022-10-18T11:42:21.437Z,15.85
2022-10-18T11:44:58.358Z,15.93
2022-10-18T11:47:34.496Z,15.65
2022-10-18T11:50:13.726Z,16.08
2022-10-18T11:55:43.972Z,18.50
2022-10-18T11:58:25.240Z,18.98
2022-10-18T12:00:58.139Z,19.48
2022-10-18T12:03:34.517Z,20.73
2022-10-18T12:06:06.870Z,19.70
2022-10-18T12:08:38.570Z,19.75
2022-10-18T12:11:14.535Z,19.92
2022-10-18T12:13:48.308Z,18.75
2022-10-18T12:16:18.599Z,19.90
2022-10-18T12:18:54.011Z,19.20
2022-10-18T12:21:25.763Z,20.83
2022-10-18T12:23:58.219Z,19.63
2022-10-18T12:26:29.340Z,19.77
2022-10-18T12:29:12.215Z,19.25
2022-10-18T12:31:44.254Z,20.10
2022-10-18T12:34:38.972Z,19.73
2022-10-18T12:37:27.949Z,20.65
2022-10-18T12:40:18.607Z,20.92
2022-10-18T12:42:52.298Z,21.30
2022-10-18T12:45:29.287Z,22.13
2022-10-18T12:48:01.180Z,21.92
2022-10-18T12:50:36.122Z,22.30
2022-10-18T12:53:20.263Z,19.60
2022-10-18T12:55:52.413Z,20.73
2022-10-18T12:58:28.239Z,21.80
2022-10-18T13:01:01.219Z,21.95
2022-10-18T13:03:54.628Z,21.88
2022-10-18T13:06:23.708Z,22.20
2022-10-18T13:09:20.755Z,21.45
2022-10-18T13:11:49.388Z,21.88
2022-10-18T13:14:53.397Z,23.23
2022-10-18T13:17:37.234Z,23.08
2022-10-18T13:20:27.039Z,24.27
2022-10-18T13:23:08.463Z,22.07
2022-10-18T13:25:50.653Z,20.70
2022-10-18T13:28:28.692Z,22.40
2022-10-18T13:31:04.913Z,22.40
2022-10-18T13:33:35.740Z,23.05
2022-10-18T13:36:06.378Z,21.58
2022-10-18T13:38:40.280Z,19.02
2022-10-18T13:41:10.626Z,23.02
2022-10-18T13:44:12.021Z,22.00
2022-10-18T13:47:19.748Z,22.13
2022-10-18T13:53:17.408Z,20.77
2022-10-18T13:56:06.275Z,20.90
2022-10-18T13:58:53.765Z,20.08
2022-10-18T14:01:38.929Z,21.05
2022-10-18T14:04:39.425Z,21.50
2022-10-18T14:07:09.983Z,20.92
2022-10-18T14:09:47.852Z,20.92
2022-10-18T14:12:26.722Z,20.27
2022-10-18T14:15:00.604Z,19.85
2022-10-18T14:17:36.755Z,20.65
2022-10-18T14:20:18.412Z,20.42
2022-10-18T14:22:52.377Z,18.80
2022-10-18T14:25:23.986Z,19.98
2022-10-18T14:28:11.419Z,19.90
2022-10-18T14:30:54.454Z,19.23
2022-10-18T14:33:28.312Z,20.88
2022-10-18T14:36:05.383Z,20.38
2022-10-18T14:38:36.492Z,19.38
2022-10-18T14:41:16.292Z,20.25
2022-10-18T14:43:45.057Z,20.27
2022-10-18T14:46:19.989Z,19.75
2022-10-18T14:48:56.039Z,18.60
2022-10-18T14:51:24.397Z,18.77
2022-10-18T14:53:54.599Z,19.83
2022-10-18T14:56:29.106Z,18.57
2022-10-18T14:58:58.925Z,17.60
2022-10-18T15:01:30.635Z,18.95
2022-10-18T15:04:00.459Z,19.38
2022-10-18T15:06:29.261Z,18.70
2022-10-18T15:09:00.851Z,19.27
2022-10-18T15:11:29.508Z,19.00
2022-10-18T15:14:03.015Z,18.65
2022-10-18T15:16:33.043Z,18.63
2022-10-18T15:19:07.289Z,18.90
2022-10-18T15:21:36.895Z,18.45
2022-10-18T15:24:29.153Z,17.92
2022-10-18T15:27:00.580Z,18.45
2022-10-18T15:29:32.854Z,18.00
2022-10-18T15:32:09.105Z,18.48
2022-10-18T15:34:37.320Z,17.60
2022-10-18T15:37:18.419Z,17.55
2022-10-18T15:39:47.916Z,17.48
2022-10-18T15:42:38.019Z,17.58
2022-10-18T15:45:35.585Z,17.85
2022-10-18T15:48:21.306Z,15.60
2022-10-18T15:50:51.465Z,17.20
2022-10-18T15:53:51.269Z,17.47
2022-10-18T15:56:32.977Z,17.65
2022-10-18T15:59:04.046Z,16.75
2022-10-18T16:01:38.656Z,17.42
2022-10-18T16:04:22.046Z,16.08
2022-10-18T16:06:50.326Z,17.17
2022-10-18T16:09:20.674Z,17.27
2022-10-18T16:11:56.414Z,17.60
2022-10-18T16:14:26.417Z,17.50
2022-10-18T16:16:56.455Z,16.25
2022-10-18T16:19:24.540Z,18.47
2022-10-18T16:21:54.676Z,16.98
2022-10-18T16:24:23.281Z,17.17
2022-10-18T16:26:53.812Z,17.30
2022-10-18T16:29:25.534Z,16.90
2022-10-18T16:31:58.007Z,16.02
2022-10-18T16:34:26.959Z,16.98
2022-10-18T16:36:55.565Z,16.45
2022-10-18T16:39:24.305Z,16.77
2022-10-18T16:41:53.893Z,16.00
2022-10-18T16:44:21.978Z,16.05
2022-10-18T16:46:52.537Z,16.45
2022-10-18T16:49:24.320Z,16.48
2022-10-18T16:51:53.521Z,17.13
2022-10-18T16:54:21.645Z,15.63
2022-10-18T16:56:50.111Z,16.25
2022-10-18T16:59:29.867Z,16.95
2022-10-18T17:01:58.028Z,16.00
2022-10-18T17:04:26.210Z,16.25
2022-10-18T17:06:58.349Z,16.00
2022-10-18T17:09:26.596Z,15.27
2022-10-18T17:11:54.750Z,15.52
2022-10-18T17:14:24.234Z,16.13
2022-10-18T17:16:55.944Z,16.02
2022-10-18T17:19:25.371Z,16.35
2022-10-18T17:21:53.484Z,17.05
2022-10-18T17:24:21.568Z,14.98
2022-10-18T17:26:49.668Z,15.38
2022-10-18T17:29:17.727Z,14.45
2022-10-18T17:31:47.187Z,15.73
2022-10-18T17:34:21.227Z,16.75
2022-10-18T17:36:49.887Z,15.88
2022-10-18T17:39:18.035Z,15.25
2022-10-18T17:41:46.160Z,14.90
2022-10-18T17:44:14.288Z,15.00
2022-10-18T17:46:42.406Z,15.48
2022-10-18T17:49:13.951Z,16.25
2022-10-18T17:51:42.854Z,15.77
2022-10-18T17:54:11.148Z,14.43
2022-10-18T17:56:40.671Z,15.23
2022-10-18T17:59:08.788Z,15.02
2022-10-18T18:01:36.901Z,14.75
2022-10-18T18:04:05.235Z,15.38
2022-10-18T18:06:36.830Z,13.85
2022-10-18T18:09:08.070Z,14.55
2022-10-18T18:11:36.816Z,14.70
2022-10-18T18:14:08.872Z,15.40
2022-10-18T18:16:39.011Z,14.80
2022-10-18T18:19:09.829Z,14.93
2022-10-18T18:21:40.741Z,14.63
2022-10-18T18:24:10.129Z,16.05
2022-10-18T18:26:39.897Z,14.63
2022-10-18T18:29:08.483Z,15.85
2022-10-18T18:31:39.965Z,15.73
2022-10-18T18:34:11.401Z,15.98
2022-10-18T18:36:41.546Z,15.75
2022-10-18T18:39:10.668Z,16.00
2022-10-18T18:41:38.784Z,15.90
2022-10-18T18:44:07.483Z,16.85
2022-10-18T18:46:39.524Z,16.48
2022-10-18T18:49:08.992Z,17.50
2022-10-18T18:51:39.816Z,18.15
2022-10-18T18:54:10.689Z,18.23
2022-10-18T18:56:38.892Z,17.52
2022-10-18T18:59:08.070Z,18.70
2022-10-18T19:01:38.834Z,18.55
2022-10-18T19:04:08.677Z,18.92
2022-10-18T19:06:38.833Z,19.30
2022-10-18T19:09:12.430Z,19.60
2022-10-18T19:11:41.080Z,19.20
2022-10-18T19:14:09.430Z,19.50
2022-10-18T19:16:39.565Z,18.98
2022-10-18T19:19:09.132Z,19.73
2022-10-18T19:21:39.565Z,19.35
2022-10-18T19:24:10.119Z,19.50
2022-10-18T19:26:44.483Z,19.90
2022-10-18T19:29:15.340Z,20.77
2022-10-18T19:31:44.596Z,20.08
2022-10-18T19:34:14.647Z,19.27
2022-10-18T19:36:44.800Z,19.33
2022-10-18T19:39:18.209Z,19.27
2022-10-18T19:41:46.567Z,19.95
2022-10-18T19:44:14.693Z,18.58
2022-10-18T19:46:42.769Z,19.30
2022-10-18T19:49:11.090Z,20.58
2022-10-18T19:51:39.403Z,19.67
2022-10-18T19:54:07.542Z,20.58
2022-10-18T19:56:37.094Z,19.95
2022-10-18T19:59:05.527Z,19.75
2022-10-18T20:01:33.670Z,20.02
2022-10-18T20:04:03.736Z,20.33
2022-10-18T20:06:32.262Z,19.67
2022-10-18T20:09:00.546Z,19.73
2022-10-18T20:11:30.092Z,19.25
2022-10-18T20:14:00.226Z,19.85
2022-10-18T20:16:29.874Z,18.90
2022-10-18T20:18:58.858Z,20.10
2022-10-18T20:21:28.393Z,18.58
2022-10-18T20:23:57.015Z,20.35
2022-10-18T20:26:25.707Z,18.98
2022-10-18T20:28:57.734Z,19.25
2022-10-18T20:31:29.533Z,19.25
2022-10-18T20:33:59.353Z,19.40
2022-10-18T20:36:28.925Z,18.17
2022-10-18T20:38:57.744Z,20.02
2022-10-18T20:41:28.420Z,19.55
2022-10-18T20:43:58.298Z,19.90
2022-10-18T20:46:30.479Z,18.80
2022-10-18T20:48:58.740Z,18.38
2022-10-18T20:51:26.878Z,18.83
2022-10-18T20:53:55.105Z,19.67
2022-10-18T20:56:26.483Z,17.77
2022-10-18T20:58:57.822Z,18.38
2022-10-18T21:01:28.874Z,18.65
2022-10-18T21:03:59.953Z,18.27
2022-10-18T21:06:29.931Z,17.52
2022-10-18T21:09:00.112Z,18.40
2022-10-18T21:11:30.094Z,19.07
2022-10-18T21:14:00.221Z,18.48
2022-10-18T21:16:30.032Z,17.77
2022-10-18T21:19:02.425Z,17.65
2022-10-18T21:21:30.547Z,17.80
2022-10-18T21:24:01.275Z,17.50
2022-10-18T21:26:32.207Z,17.25
2022-10-18T21:29:00.545Z,17.45
2022-10-18T21:31:31.900Z,17.42
2022-10-18T21:34:02.742Z,16.58
2022-10-18T21:36:33.726Z,17.30
2022-10-18T21:41:29.848Z,17.20
2022-10-18T21:43:57.922Z,17.50
2022-10-18T21:46:27.086Z,18.00
2022-10-18T21:48:58.073Z,16.10
2022-10-18T21:53:56.527Z,17.13
2022-10-18T21:56:26.598Z,17.13
2022-10-18T21:58:54.824Z,16.53
2022-10-18T22:01:24.388Z,17.83
2022-10-18T22:03:54.288Z,17.00
2022-10-18T22:06:24.213Z,16.95
2022-10-18T22:08:53.940Z,15.88
2022-10-18T22:11:23.898Z,17.00
2022-10-18T22:13:52.822Z,16.65
2022-10-18T22:16:20.935Z,16.65
2022-10-18T22:18:50.118Z,15.98
2022-10-18T22:21:20.845Z,16.08
2022-10-18T22:23:51.910Z,16.30
2022-10-18T22:26:21.942Z,16.48
2022-10-18T22:28:56.167Z,16.17
2022-10-18T22:31:26.365Z,15.80
2022-10-18T22:33:55.348Z,15.33
2022-10-18T22:36:23.715Z,15.60
2022-10-18T22:38:53.429Z,14.90
2022-10-18T22:41:21.710Z,16.40
2022-10-18T22:43:51.467Z,15.70
2022-10-18T22:46:20.750Z,15.48
2022-10-18T22:48:49.153Z,15.95
2022-10-18T22:51:17.656Z,16.20
2022-10-18T22:53:46.422Z,15.18
2022-10-18T22:56:18.766Z,15.57
2022-10-18T22:58:48.000Z,14.40
2022-10-18T23:01:19.156Z,15.18
2022-10-18T23:03:47.888Z,14.32
2022-10-18T23:06:24.243Z,14.75
2022-10-18T23:08:53.776Z,15.32
2022-10-18T23:11:23.831Z,15.48
2022-10-18T23:13:52.365Z,14.30
2022-10-18T23:16:20.804Z,14.10
2022-10-18T23:18:51.969Z,15.05
2022-10-18T23:21:20.622Z,15.23
2022-10-18T23:23:48.932Z,15.48
2022-10-18T23:26:18.503Z,15.05
2022-10-18T23:28:49.543Z,15.48
2022-10-18T23:31:19.958Z,15.00
2022-10-18T23:33:50.150Z,14.53
2022-10-18T23:36:18.720Z,14.87
2022-10-18T23:38:47.218Z,14.15
2022-10-18T23:41:16.764Z,15.20
2022-10-18T23:46:17.613Z,14.25
2022-10-18T23:48:46.311Z,14.40
2022-10-18T23:51:14.625Z,14.05
2022-10-18T23:53:43.008Z,14.50
2022-10-18T23:56:12.917Z,13.73
2022-10-18T23:58:42.033Z,14.13
